Time;durP1;ratioP1;P1;durP2;ratioP2;P2;SDS_P1;SDS_P2;PMS_P1;PMS_P2;Temp;Humidity;BMP_temperature;BMP_pressure;BME280_temperature;BME280_humidity;BME280_pressure;Samples;Min_cycle;Max_cycle;Signal;HPM_P1;HPM_P2
2022/11/19 00:01:25;;;;;;;25.58;14.57;;;;;;;;;;5016921;28;20046;-76
2022/11/19 00:04:10;;;;;;;25.92;15.65;;;;;;;;;;5016804;28;20058;-76
2022/11/19 00:06:56;;;;;;;26.02;15.10;;;;;;;;;;5006687;28;20487;-78
2022/11/19 00:09:43;;;;;;;25.42;15.52;;;;;;;;;;5016552;28;20050;-77
2022/11/19 00:15:34;;;;;;;27.90;15.73;;;;;;;;;;5019242;28;20050;-77
2022/11/19 00:18:19;;;;;;;50.53;28.15;;;;;;;;;;5024559;28;20046;-77
2022/11/19 00:21:09;;;;;;;30.05;18.92;;;;;;;;;;5017789;28;20046;-76
2022/11/19 00:23:55;;;;;;;35.88;23.67;;;;;;;;;;5022714;28;20050;-78
2022/11/19 00:26:40;;;;;;;40.25;25.00;;;;;;;;;;5025101;28;20053;-76
2022/11/19 00:29:27;;;;;;;9.73;6.50;;;;;;;;;;5007956;28;20049;-76
2022/11/19 00:32:12;;;;;;;8.32;5.90;;;;;;;;;;5015145;28;20050;-76
2022/11/19 00:34:58;;;;;;;22.98;13.23;;;;;;;;;;5014505;28;20046;-75
2022/11/19 00:37:43;;;;;;;23.85;14.05;;;;;;;;;;5022207;28;20080;-76
2022/11/19 00:40:29;;;;;;;23.85;14.48;;;;;;;;;;5015109;28;20042;-76
2022/11/19 00:46:19;;;;;;;25.70;14.18;;;;;;;;;;5016040;28;20054;-76
2022/11/19 00:49:05;;;;;;;25.02;15.20;;;;;;;;;;5022157;28;20039;-75
2022/11/19 00:51:50;;;;;;;30.30;16.48;;;;;;;;;;5016184;28;20487;-76
2022/11/19 00:54:36;;;;;;;26.10;16.30;;;;;;;;;;5016348;28;20049;-76
2022/11/19 00:57:21;;;;;;;27.30;17.33;;;;;;;;;;5014932;28;20054;-76
2022/11/19 01:00:08;;;;;;;24.42;16.42;;;;;;;;;;5015748;28;20046;-75
2022/11/19 01:02:52;;;;;;;26.92;16.83;;;;;;;;;;5015631;28;20049;-76
2022/11/19 01:05:37;;;;;;;24.25;17.40;;;;;;;;;;5015718;28;20062;-75
2022/11/19 01:08:23;;;;;;;29.55;17.35;;;;;;;;;;5015631;28;20502;-75
2022/11/19 01:11:16;;;;;;;31.35;18.45;;;;;;;;;;5007014;28;20050;-75
2022/11/19 01:14:03;;;;;;;21.92;14.38;;;;;;;;;;5015724;28;20038;-76
2022/11/19 01:16:49;;;;;;;25.20;14.18;;;;;;;;;;5015407;28;20045;-75
2022/11/19 01:19:34;;;;;;;26.00;15.20;;;;;;;;;;5015251;28;20049;-75
2022/11/19 01:22:19;;;;;;;22.83;13.55;;;;;;;;;;5015396;28;20049;-75
2022/11/19 01:25:04;;;;;;;37.08;20.80;;;;;;;;;;5014801;28;20042;-75
2022/11/19 01:27:50;;;;;;;37.55;19.83;;;;;;;;;;5015325;28;20042;-76
2022/11/19 01:30:39;;;;;;;26.05;15.18;;;;;;;;;;5015273;28;20483;-75
2022/11/19 01:33:25;;;;;;;20.40;13.68;;;;;;;;;;5014587;28;20041;-75
2022/11/19 01:36:20;;;;;;;20.63;13.45;;;;;;;;;;5015004;28;20037;-76
2022/11/19 01:39:05;;;;;;;23.02;13.95;;;;;;;;;;5014549;28;20033;-76
2022/11/19 01:41:51;;;;;;;18.40;13.23;;;;;;;;;;5015259;28;20409;-76
2022/11/19 01:45:17;;;;;;;18.38;12.88;;;;;;;;;;5014999;28;20042;-75
2022/11/19 01:48:11;;;;;;;18.27;12.40;;;;;;;;;;4986529;28;20095;-76
2022/11/19 01:51:03;;;;;;;17.05;11.95;;;;;;;;;;5006978;28;20053;-76
2022/11/19 01:53:52;;;;;;;17.63;11.45;;;;;;;;;;5014504;28;20037;-75
2022/11/19 01:56:38;;;;;;;15.20;9.43;;;;;;;;;;5021090;28;20050;-78
2022/11/19 01:59:25;;;;;;;14.38;8.60;;;;;;;;;;5014629;28;20042;-76
2022/11/19 02:02:11;;;;;;;15.15;8.13;;;;;;;;;;5014394;28;20054;-76
2022/11/19 02:04:56;;;;;;;11.55;7.80;;;;;;;;;;5014320;28;20050;-76
2022/11/19 02:07:50;;;;;;;10.80;6.53;;;;;;;;;;5014084;28;20049;-75
2022/11/19 02:10:47;;;;;;;8.45;5.68;;;;;;;;;;5014407;28;20037;-76
2022/11/19 02:13:55;;;;;;;10.82;6.63;;;;;;;;;;5014327;28;20050;-76
2022/11/19 02:17:05;;;;;;;10.15;6.82;;;;;;;;;;5014056;28;20492;-76
2022/11/19 02:20:05;;;;;;;11.25;6.38;;;;;;;;;;5014379;28;20045;-75
2022/11/19 02:23:29;;;;;;;9.45;6.32;;;;;;;;;;5014140;28;20041;-75
2022/11/19 02:26:32;;;;;;;11.13;7.72;;;;;;;;;;5014686;28;20387;-75
2022/11/19 02:29:32;;;;;;;11.70;7.28;;;;;;;;;;5013432;28;20038;-76
2022/11/19 02:32:23;;;;;;;10.82;6.90;;;;;;;;;;5013936;28;20399;-76
2022/11/19 02:35:30;;;;;;;10.90;7.25;;;;;;;;;;5014220;28;20491;-76
2022/11/19 02:38:25;;;;;;;10.38;6.97;;;;;;;;;;5019138;28;20042;-76
2022/11/19 02:41:35;;;;;;;17.60;8.90;;;;;;;;;;5012126;28;20050;-76
2022/11/19 02:47:33;;;;;;;22.25;9.85;;;;;;;;;;5012576;28;20491;-77
2022/11/19 02:50:48;;;;;;;18.05;9.48;;;;;;;;;;5012099;28;20049;-76
2022/11/19 02:53:33;;;;;;;26.98;12.57;;;;;;;;;;5013300;28;20049;-77
2022/11/19 02:56:43;;;;;;;20.10;10.73;;;;;;;;;;5013882;28;20042;-76
2022/11/19 03:06:21;;;;;;;19.08;11.30;;;;;;;;;;5017593;28;20054;-75
2022/11/19 03:09:05;;;;;;;13.82;8.63;;;;;;;;;;5024201;28;20388;-76
2022/11/19 03:12:00;;;;;;;13.68;7.40;;;;;;;;;;5017663;28;20407;-76
2022/11/19 03:18:11;;;;;;;12.15;7.10;;;;;;;;;;5017154;28;20407;-77
2022/11/19 03:21:20;;;;;;;11.70;6.63;;;;;;;;;;5017608;28;20079;-75
2022/11/19 03:24:16;;;;;;;8.40;5.10;;;;;;;;;;5017468;28;20038;-76
2022/11/19 03:27:40;;;;;;;9.40;5.53;;;;;;;;;;5023501;28;20049;-75
2022/11/19 03:30:28;;;;;;;7.93;5.28;;;;;;;;;;5017332;28;20050;-76
2022/11/19 03:33:24;;;;;;;9.80;5.57;;;;;;;;;;5016957;28;20058;-77
2022/11/19 03:36:14;;;;;;;12.55;6.78;;;;;;;;;;5017884;28;20042;-76
2022/11/19 03:39:06;;;;;;;8.60;5.68;;;;;;;;;;5009457;28;20050;-76
2022/11/19 03:41:53;;;;;;;9.77;5.68;;;;;;;;;;5016962;28;20054;-76
2022/11/19 03:44:46;;;;;;;14.32;5.53;;;;;;;;;;5017159;28;20042;-77
2022/11/19 03:47:38;;;;;;;10.00;6.28;;;;;;;;;;5016563;28;20038;-77
2022/11/19 03:50:30;;;;;;;8.30;5.50;;;;;;;;;;5017142;28;20046;-76
2022/11/19 03:53:16;;;;;;;7.85;4.68;;;;;;;;;;5016880;28;20046;-76
2022/11/19 03:56:06;;;;;;;7.50;4.65;;;;;;;;;;5016700;28;20042;-76
2022/11/19 03:58:52;;;;;;;7.63;4.70;;;;;;;;;;5016747;28;20046;-76
2022/11/19 04:01:39;;;;;;;8.77;5.88;;;;;;;;;;5016693;28;20042;-76
2022/11/19 04:04:36;;;;;;;10.65;6.47;;;;;;;;;;5016879;28;20041;-76
2022/11/19 04:07:23;;;;;;;10.32;6.70;;;;;;;;;;5016995;28;20045;-76
2022/11/19 04:10:08;;;;;;;14.90;7.75;;;;;;;;;;5015938;28;20042;-76
2022/11/19 04:12:53;;;;;;;13.32;8.15;;;;;;;;;;5016614;28;20042;-76
2022/11/19 04:15:38;;;;;;;21.08;9.95;;;;;;;;;;5016063;28;20410;-76
2022/11/19 04:18:23;;;;;;;17.15;10.38;;;;;;;;;;5016589;28;20042;-76
2022/11/19 04:21:09;;;;;;;13.73;8.57;;;;;;;;;;5016413;28;20049;-76
2022/11/19 04:23:54;;;;;;;12.55;7.88;;;;;;;;;;5015889;28;20045;-75
2022/11/19 04:26:40;;;;;;;10.13;6.55;;;;;;;;;;5016631;28;20050;-76
2022/11/19 04:29:25;;;;;;;9.93;6.97;;;;;;;;;;5015875;28;20042;-76
2022/11/19 04:32:11;;;;;;;11.32;7.47;;;;;;;;;;5015832;28;20038;-76
2022/11/19 04:34:57;;;;;;;13.88;7.53;;;;;;;;;;5016182;28;20050;-76
2022/11/19 04:37:42;;;;;;;14.20;7.03;;;;;;;;;;5007581;28;20049;-75
2022/11/19 04:40:28;;;;;;;12.10;7.22;;;;;;;;;;5022319;28;20499;-76
2022/11/19 04:43:13;;;;;;;10.00;6.85;;;;;;;;;;5022738;28;20050;-76
2022/11/19 04:45:59;;;;;;;13.55;8.25;;;;;;;;;;5015889;28;20392;-76
2022/11/19 04:48:44;;;;;;;13.32;7.15;;;;;;;;;;5015936;28;20057;-76
2022/11/19 04:51:29;;;;;;;12.57;7.25;;;;;;;;;;5015454;28;20042;-76
2022/11/19 04:54:14;;;;;;;18.23;7.82;;;;;;;;;;5015802;28;20046;-77
2022/11/19 04:56:59;;;;;;;16.42;7.40;;;;;;;;;;5015690;28;20050;-76
2022/11/19 04:59:45;;;;;;;15.35;9.77;;;;;;;;;;5015398;28;20050;-76
2022/11/19 05:02:31;;;;;;;20.30;9.35;;;;;;;;;;5022190;28;20038;-77
2022/11/19 05:05:16;;;;;;;15.60;9.32;;;;;;;;;;5015480;28;20061;-77
2022/11/19 05:08:02;;;;;;;17.38;9.85;;;;;;;;;;5015663;28;20097;-76
2022/11/19 05:10:47;;;;;;;19.98;11.82;;;;;;;;;;5015837;28;20487;-76
2022/11/19 05:13:33;;;;;;;22.13;12.90;;;;;;;;;;5015430;28;20041;-76
2022/11/19 05:16:19;;;;;;;22.45;13.27;;;;;;;;;;5015490;28;20038;-76
2022/11/19 05:19:04;;;;;;;26.63;15.20;;;;;;;;;;5015020;28;20073;-77
2022/11/19 05:21:50;;;;;;;24.27;13.00;;;;;;;;;;5022009;28;20491;-76
2022/11/19 05:24:36;;;;;;;24.35;12.48;;;;;;;;;;5015213;28;20042;-76
2022/11/19 05:27:22;;;;;;;22.65;12.73;;;;;;;;;;5014315;28;20491;-76
2022/11/19 05:30:08;;;;;;;24.02;12.13;;;;;;;;;;5015008;28;20392;-76
2022/11/19 05:32:54;;;;;;;41.83;23.20;;;;;;;;;;5015762;28;20049;-76
2022/11/19 05:35:40;;;;;;;38.67;20.48;;;;;;;;;;5014772;28;20053;-76
2022/11/19 05:38:25;;;;;;;32.40;15.80;;;;;;;;;;5014878;28;20046;-76
2022/11/19 05:41:11;;;;;;;25.35;14.23;;;;;;;;;;5014541;28;20049;-77
2022/11/19 05:43:56;;;;;;;18.10;10.93;;;;;;;;;;5014792;28;20049;-76
2022/11/19 05:46:42;;;;;;;20.25;11.60;;;;;;;;;;5015181;28;20041;-77
2022/11/19 05:49:27;;;;;;;21.80;13.13;;;;;;;;;;5014347;28;20050;-76
2022/11/19 05:52:13;;;;;;;22.30;13.70;;;;;;;;;;5014630;28;20399;-77
2022/11/19 05:54:59;;;;;;;27.27;16.10;;;;;;;;;;5014361;28;20038;-76
2022/11/19 05:57:44;;;;;;;26.20;15.85;;;;;;;;;;5021109;28;20049;-76
2022/11/19 06:00:30;;;;;;;26.10;17.27;;;;;;;;;;5014784;28;20046;-77
2022/11/19 06:03:16;;;;;;;25.45;15.93;;;;;;;;;;5020481;28;20398;-76
2022/11/19 06:06:01;;;;;;;26.20;14.35;;;;;;;;;;5014302;28;20490;-76
2022/11/19 06:08:47;;;;;;;52.08;22.20;;;;;;;;;;5014289;28;20042;-76
2022/11/19 06:11:47;;;;;;;61.20;24.20;;;;;;;;;;5014611;28;20042;-76
2022/11/19 06:14:31;;;;;;;34.58;18.60;;;;;;;;;;5015307;28;20479;-75
2022/11/19 06:17:16;;;;;;;63.17;35.00;;;;;;;;;;5013939;28;20038;-76
2022/11/19 06:20:02;;;;;;;59.15;29.35;;;;;;;;;;5015451;28;20049;-76
2022/11/19 06:22:48;;;;;;;74.15;28.05;;;;;;;;;;5015679;28;20038;-76
2022/11/19 06:25:33;;;;;;;77.93;30.80;;;;;;;;;;5015894;28;20050;-75
2022/11/19 06:28:19;;;;;;;57.53;25.83;;;;;;;;;;5016075;28;20053;-75
2022/11/19 06:31:04;;;;;;;59.28;26.20;;;;;;;;;;5015280;28;20050;-75
2022/11/19 06:33:52;;;;;;;62.10;29.60;;;;;;;;;;5016880;28;20483;-75
2022/11/19 06:36:39;;;;;;;50.72;24.70;;;;;;;;;;5015479;28;20046;-75
2022/11/19 06:39:24;;;;;;;45.60;24.13;;;;;;;;;;5020190;28;20053;-76
2022/11/19 06:45:13;;;;;;;40.72;22.23;;;;;;;;;;5015261;28;20046;-75
2022/11/19 06:47:58;;;;;;;46.65;24.55;;;;;;;;;;5015154;28;20050;-76
2022/11/19 06:50:44;;;;;;;38.85;23.52;;;;;;;;;;5014623;28;20045;-76
2022/11/19 06:53:31;;;;;;;39.92;24.27;;;;;;;;;;5020860;28;20038;-76
2022/11/19 06:56:16;;;;;;;45.13;26.92;;;;;;;;;;5014771;28;20042;-75
2022/11/19 06:59:02;;;;;;;47.75;26.92;;;;;;;;;;5013728;28;20046;-76
2022/11/19 07:01:47;;;;;;;36.28;22.10;;;;;;;;;;5014074;28;20046;-76
2022/11/19 07:04:33;;;;;;;35.63;20.80;;;;;;;;;;5014376;28;20058;-76
2022/11/19 07:07:19;;;;;;;38.67;21.92;;;;;;;;;;5019723;28;20042;-75
2022/11/19 07:10:06;;;;;;;26.95;16.98;;;;;;;;;;5014047;28;20049;-77
2022/11/19 07:12:51;;;;;;;33.15;19.20;;;;;;;;;;5013489;28;20042;-77
2022/11/19 07:15:36;;;;;;;39.45;21.20;;;;;;;;;;5013935;28;20041;-76
2022/11/19 07:18:22;;;;;;;21.38;11.27;;;;;;;;;;4999354;28;20129;-76
2022/11/19 07:21:08;;;;;;;18.25;10.80;;;;;;;;;;5013098;28;20046;-75
2022/11/19 07:23:54;;;;;;;19.13;12.45;;;;;;;;;;5013513;28;20053;-75
2022/11/19 07:26:40;;;;;;;20.95;14.13;;;;;;;;;;5019774;28;20041;-78
2022/11/19 07:29:25;;;;;;;19.08;11.48;;;;;;;;;;5014073;28;20053;-76
2022/11/19 07:32:11;;;;;;;17.70;11.43;;;;;;;;;;5015151;28;20054;-77
2022/11/19 07:34:57;;;;;;;23.30;15.15;;;;;;;;;;5014936;28;20050;-77
2022/11/19 07:37:42;;;;;;;19.50;12.40;;;;;;;;;;5022484;28;20049;-77
2022/11/19 07:40:28;;;;;;;21.90;14.45;;;;;;;;;;5013297;28;20038;-76
2022/11/19 07:43:13;;;;;;;23.45;13.18;;;;;;;;;;5012838;28;20042;-76
2022/11/19 07:46:04;;;;;;;19.50;12.18;;;;;;;;;;5014052;28;20395;-75
2022/11/19 07:48:54;;;;;;;23.30;13.88;;;;;;;;;;5020220;28;20050;-76
2022/11/19 07:51:39;;;;;;;21.08;14.20;;;;;;;;;;5016642;28;20046;-75
2022/11/19 07:54:25;;;;;;;24.30;15.68;;;;;;;;;;5022472;28;20045;-76
2022/11/19 07:57:10;;;;;;;31.35;17.85;;;;;;;;;;5018115;28;20041;-76
2022/11/19 07:59:56;;;;;;;28.27;18.42;;;;;;;;;;5018776;28;20054;-76
2022/11/19 08:02:42;;;;;;;29.30;18.35;;;;;;;;;;5017447;28;20046;-78
2022/11/19 08:05:27;;;;;;;34.63;22.13;;;;;;;;;;5017630;28;20042;-74
2022/11/19 08:08:13;;;;;;;52.97;26.27;;;;;;;;;;5017054;28;20089;-74
2022/11/19 08:11:04;;;;;;;47.55;27.88;;;;;;;;;;5016525;28;20042;-75
2022/11/19 08:13:49;;;;;;;63.35;36.40;;;;;;;;;;5016157;28;20042;-76
2022/11/19 08:19:38;;;;;;;186.65;103.57;;;;;;;;;;5022527;28;20399;-75
2022/11/19 08:22:23;;;;;;;160.98;93.35;;;;;;;;;;5023679;28;20037;-76
2022/11/19 08:25:09;;;;;;;96.75;58.15;;;;;;;;;;5017790;28;20373;-76
2022/11/19 08:27:54;;;;;;;80.00;45.88;;;;;;;;;;5017104;28;20054;-77
2022/11/19 08:30:40;;;;;;;51.88;30.67;;;;;;;;;;5006396;28;20503;-76
2022/11/19 08:33:26;;;;;;;45.67;28.65;;;;;;;;;;5015517;28;20511;-76
2022/11/19 08:36:11;;;;;;;41.65;27.95;;;;;;;;;;5016061;28;20042;-74
2022/11/19 08:38:59;;;;;;;44.65;27.80;;;;;;;;;;5015001;28;20046;-75
2022/11/19 08:44:48;;;;;;;40.03;25.98;;;;;;;;;;5015877;28;20053;-75
2022/11/19 08:47:33;;;;;;;43.28;26.83;;;;;;;;;;5015305;28;20045;-75
2022/11/19 08:50:19;;;;;;;43.22;28.10;;;;;;;;;;5014875;28;20046;-75
2022/11/19 08:53:05;;;;;;;44.15;30.10;;;;;;;;;;5015148;28;20050;-76
2022/11/19 08:55:50;;;;;;;36.85;25.88;;;;;;;;;;5022055;28;20050;-75
2022/11/19 08:58:36;;;;;;;36.70;23.42;;;;;;;;;;5015186;28;20046;-76
2022/11/19 09:01:22;;;;;;;36.83;22.25;;;;;;;;;;5020864;28;20046;-76
2022/11/19 09:04:07;;;;;;;31.92;21.88;;;;;;;;;;5021247;28;20419;-75
2022/11/19 09:06:53;;;;;;;31.42;19.88;;;;;;;;;;5015393;28;20038;-76
2022/11/19 09:09:38;;;;;;;27.58;18.63;;;;;;;;;;5014555;28;20483;-75
2022/11/19 09:12:24;;;;;;;35.80;24.20;;;;;;;;;;5014913;28;20049;-76
2022/11/19 09:15:10;;;;;;;24.95;16.60;;;;;;;;;;5015460;28;20042;-78
2022/11/19 09:17:55;;;;;;;35.20;23.83;;;;;;;;;;5015321;28;20479;-80
2022/11/19 09:20:41;;;;;;;28.63;19.83;;;;;;;;;;5015560;28;20475;-79
2022/11/19 09:23:26;;;;;;;39.65;25.20;;;;;;;;;;5014978;28;20344;-82
2022/11/19 09:26:14;;;;;;;27.58;15.00;;;;;;;;;;5015407;28;20046;-76
2022/11/19 09:29:00;;;;;;;30.58;19.00;;;;;;;;;;5014943;28;20049;-76
2022/11/19 09:31:45;;;;;;;30.35;17.80;;;;;;;;;;5014837;28;20054;-79
2022/11/19 09:34:31;;;;;;;18.95;13.73;;;;;;;;;;5020882;28;20493;-78
2022/11/19 09:37:16;;;;;;;23.10;15.88;;;;;;;;;;5019940;28;20423;-78
2022/11/19 09:40:03;;;;;;;22.38;17.00;;;;;;;;;;5026505;28;20046;-79
2022/11/19 09:42:53;;;;;;;24.67;15.90;;;;;;;;;;5020163;28;20042;-76
2022/11/19 09:45:44;;;;;;;17.58;12.50;;;;;;;;;;5019840;28;20045;-75
2022/11/19 09:48:32;;;;;;;20.63;13.38;;;;;;;;;;5020063;28;20046;-76
2022/11/19 09:51:28;;;;;;;18.70;12.07;;;;;;;;;;5019093;28;20042;-77
2022/11/19 09:54:17;;;;;;;20.40;13.52;;;;;;;;;;5024671;28;20042;-77
2022/11/19 09:57:09;;;;;;;19.10;13.18;;;;;;;;;;5014125;28;20038;-77
2022/11/19 09:59:58;;;;;;;24.92;14.57;;;;;;;;;;5015000;28;20053;-76
2022/11/19 10:02:43;;;;;;;17.73;12.55;;;;;;;;;;5014719;28;20050;-77
2022/11/19 10:05:49;;;;;;;28.02;16.10;;;;;;;;;;5013050;28;20483;-79
2022/11/19 10:08:47;;;;;;;54.42;28.38;;;;;;;;;;5014840;28;20046;-81
2022/11/19 10:11:48;;;;;;;49.90;26.90;;;;;;;;;;5020508;28;20444;-78
2022/11/19 10:15:07;;;;;;;30.25;17.58;;;;;;;;;;5014201;28;20046;-79
2022/11/19 10:18:21;;;;;;;27.08;17.35;;;;;;;;;;5014085;28;20042;-81
2022/11/19 10:21:16;;;;;;;26.55;16.20;;;;;;;;;;5014268;28;20042;-79
2022/11/19 10:24:11;;;;;;;39.92;23.30;;;;;;;;;;5013531;28;20387;-81
2022/11/19 10:26:59;;;;;;;49.50;28.42;;;;;;;;;;5013215;28;20041;-79
2022/11/19 10:29:49;;;;;;;23.30;14.35;;;;;;;;;;5014295;28;20046;-79
2022/11/19 10:32:39;;;;;;;21.30;13.93;;;;;;;;;;5014002;28;20054;-79
2022/11/19 10:35:36;;;;;;;21.58;14.07;;;;;;;;;;5013862;28;20046;-78
2022/11/19 10:38:56;;;;;;;31.15;17.55;;;;;;;;;;5015097;28;20046;-78
2022/11/19 10:41:52;;;;;;;28.00;17.63;;;;;;;;;;5013948;28;20411;-81
2022/11/19 10:45:00;;;;;;;24.02;15.27;;;;;;;;;;5016639;28;20050;-79
2022/11/19 10:48:12;;;;;;;17.38;12.02;;;;;;;;;;5013575;28;20042;-80
2022/11/19 10:50:58;;;;;;;28.08;15.75;;;;;;;;;;5013820;28;20427;-78
2022/11/19 10:53:45;;;;;;;23.42;13.27;;;;;;;;;;5020371;28;20045;-79
2022/11/19 10:56:38;;;;;;;15.45;11.30;;;;;;;;;;5013589;28;20054;-77
2022/11/19 10:59:29;;;;;;;17.48;12.80;;;;;;;;;;5013441;28;20038;-77
2022/11/19 11:02:39;;;;;;;20.77;14.02;;;;;;;;;;5013098;28;20055;-83
2022/11/19 11:05:24;;;;;;;17.85;12.15;;;;;;;;;;5013680;28;20045;-80
2022/11/19 11:08:12;;;;;;;18.92;10.70;;;;;;;;;;5019813;28;20042;-81
2022/11/19 11:10:58;;;;;;;17.25;11.43;;;;;;;;;;5013586;28;20037;-77
2022/11/19 11:16:47;;;;;;;32.10;19.73;;;;;;;;;;5012941;28;20050;-80
2022/11/19 11:19:33;;;;;;;38.05;22.65;;;;;;;;;;5013844;28;20042;-77
2022/11/19 11:22:19;;;;;;;60.72;36.38;;;;;;;;;;5013358;28;20037;-77
2022/11/19 11:25:26;;;;;;;50.38;29.08;;;;;;;;;;5014224;28;20042;-78
2022/11/19 11:28:17;;;;;;;26.30;17.27;;;;;;;;;;5017527;28;20046;-78
2022/11/19 11:31:05;;;;;;;27.42;16.90;;;;;;;;;;5017032;28;20399;-78
2022/11/19 11:33:55;;;;;;;22.45;14.95;;;;;;;;;;5017350;28;20046;-79
2022/11/19 11:36:43;;;;;;;21.02;12.95;;;;;;;;;;5023556;28;20046;-80
2022/11/19 11:39:31;;;;;;;23.95;15.35;;;;;;;;;;5016831;28;20045;-80
2022/11/19 11:42:18;;;;;;;22.25;16.88;;;;;;;;;;5017411;28;20038;-80
2022/11/19 11:45:06;;;;;;;24.13;16.65;;;;;;;;;;5016545;28;20049;-79
2022/11/19 11:47:52;;;;;;;24.40;16.70;;;;;;;;;;5017180;28;20050;-80
2022/11/19 11:50:38;;;;;;;29.60;18.83;;;;;;;;;;5016629;28;20054;-81
2022/11/19 11:53:29;;;;;;;29.80;20.48;;;;;;;;;;5017254;28;20045;-81
2022/11/19 11:56:20;;;;;;;34.35;20.63;;;;;;;;;;5017189;28;20042;-80
2022/11/19 11:59:29;;;;;;;34.17;22.90;;;;;;;;;;5017314;28;20431;-81
2022/11/19 12:02:34;;;;;;;30.10;18.83;;;;;;;;;;5016806;28;20053;-82
2022/11/19 12:05:19;;;;;;;15.32;11.35;;;;;;;;;;5016310;28;20042;-80
2022/11/19 12:08:17;;;;;;;19.80;9.90;;;;;;;;;;5016641;28;20049;-82
2022/11/19 12:11:15;;;;;;;11.98;8.30;;;;;;;;;;5016572;28;20038;-81
2022/11/19 12:14:06;;;;;;;13.93;8.43;;;;;;;;;;5015910;28;20053;-80
2022/11/19 12:17:30;;;;;;;16.33;8.90;;;;;;;;;;5017545;28;20414;-81
2022/11/19 12:20:30;;;;;;;12.70;9.07;;;;;;;;;;5015530;28;20057;-80
2022/11/19 12:23:30;;;;;;;17.75;12.90;;;;;;;;;;5016447;28;20045;-80
2022/11/19 12:26:54;;;;;;;16.73;11.23;;;;;;;;;;5015969;28;20050;-80
2022/11/19 12:30:07;;;;;;;10.65;7.82;;;;;;;;;;5009354;28;20418;-80
2022/11/19 12:33:19;;;;;;;15.75;9.75;;;;;;;;;;5016540;28;20054;-81
2022/11/19 12:36:26;;;;;;;16.60;11.35;;;;;;;;;;5015509;28;20042;-82
2022/11/19 12:39:28;;;;;;;24.95;16.83;;;;;;;;;;5016065;28;20049;-80
2022/11/19 12:42:44;;;;;;;37.97;24.48;;;;;;;;;;5015768;28;20049;-82
2022/11/19 12:45:49;;;;;;;48.70;28.08;;;;;;;;;;5016686;28;20042;-80
2022/11/19 12:49:12;;;;;;;42.85;26.50;;;;;;;;;;5015316;28;20045;-81
2022/11/19 12:52:15;;;;;;;42.72;24.95;;;;;;;;;;5015873;28;20503;-80
2022/11/19 12:55:10;;;;;;;47.88;28.08;;;;;;;;;;5015293;28;20054;-82
2022/11/19 12:58:20;;;;;;;45.58;25.25;;;;;;;;;;5015953;28;20058;-81
2022/11/19 13:01:11;;;;;;;40.38;23.55;;;;;;;;;;5016037;28;20163;-81
2022/11/19 13:04:41;;;;;;;28.88;15.40;;;;;;;;;;5016278;28;20038;-81
2022/11/19 13:07:32;;;;;;;33.85;19.42;;;;;;;;;;4982253;28;20459;-80
2022/11/19 13:10:22;;;;;;;33.90;20.23;;;;;;;;;;5015247;28;20054;-80
2022/11/19 13:13:13;;;;;;;30.55;18.15;;;;;;;;;;5015370;28;20045;-82
2022/11/19 13:16:09;;;;;;;34.35;21.63;;;;;;;;;;5015225;28;20046;-80
2022/11/19 13:19:25;;;;;;;57.97;31.40;;;;;;;;;;5014984;28;20062;-81
2022/11/19 13:22:20;;;;;;;53.40;30.25;;;;;;;;;;5021805;28;20427;-81
2022/11/19 13:25:14;;;;;;;55.30;33.60;;;;;;;;;;5014871;28;20042;-81
2022/11/19 13:28:02;;;;;;;59.53;33.53;;;;;;;;;;5015603;28;20057;-81
2022/11/19 13:30:51;;;;;;;70.78;38.53;;;;;;;;;;5014318;28;20046;-82
2022/11/19 13:33:47;;;;;;;54.67;31.95;;;;;;;;;;5015490;28;20049;-81
2022/11/19 13:36:40;;;;;;;70.70;33.72;;;;;;;;;;5021637;28;20038;-82
2022/11/19 13:39:46;;;;;;;66.15;35.58;;;;;;;;;;5014461;28;20034;-82
2022/11/19 13:45:37;;;;;;;;;;;;;;;;;;4985199;28;20050;-81
2022/11/19 13:48:31;;;;;;;39.38;23.08;;;;;;;;;;5002499;28;19922;-82
2022/11/19 13:51:29;;;;;;;49.05;28.70;;;;;;;;;;5015016;28;20042;-82
2022/11/19 13:54:28;;;;;;;34.47;21.90;;;;;;;;;;5014678;28;20499;-81
2022/11/19 13:57:32;;;;;;;43.63;23.92;;;;;;;;;;5015799;28;20050;-80
2022/11/19 14:00:26;;;;;;;29.83;19.23;;;;;;;;;;5013993;28;20053;-81
2022/11/19 14:03:32;;;;;;;32.28;17.52;;;;;;;;;;5014718;28;20045;-80
2022/11/19 14:06:33;;;;;;;40.03;21.88;;;;;;;;;;5014388;28;20046;-80
2022/11/19 14:09:39;;;;;;;44.55;21.73;;;;;;;;;;5014764;28;20053;-80
2022/11/19 14:12:57;;;;;;;32.90;17.02;;;;;;;;;;5021213;28;20058;-81
2022/11/19 14:29:03;;;;;;;45.28;29.48;;;;;;;;;;5013433;28;20050;-81
2022/11/19 14:32:05;;;;;;;52.72;31.88;;;;;;;;;;5014201;28;20038;-80
2022/11/19 14:35:02;;;;;;;37.15;24.17;;;;;;;;;;5014197;28;20053;-81
2022/11/19 14:37:52;;;;;;;45.97;27.88;;;;;;;;;;5014362;28;20045;-81
2022/11/19 14:40:39;;;;;;;40.20;26.20;;;;;;;;;;5013696;28;20034;-80
2022/11/19 14:46:30;;;;;;;48.20;30.45;;;;;;;;;;5020156;28;20045;-80
2022/11/19 14:49:34;;;;;;;58.92;35.10;;;;;;;;;;5013306;28;20045;-80
2022/11/19 14:52:23;;;;;;;83.15;45.90;;;;;;;;;;5013571;28;20049;-81
2022/11/19 14:55:24;;;;;;;91.45;51.20;;;;;;;;;;5020204;28;20046;-80
2022/11/19 14:58:22;;;;;;;96.05;52.05;;;;;;;;;;5019824;28;20046;-81
2022/11/19 15:01:19;;;;;;;99.72;55.58;;;;;;;;;;5012278;28;20053;-81
2022/11/19 15:04:09;;;;;;;65.35;36.05;;;;;;;;;;4998672;28;20053;-82
2022/11/19 15:06:56;;;;;;;52.30;30.88;;;;;;;;;;5020314;28;20399;-82
2022/11/19 15:10:02;;;;;;;70.38;41.67;;;;;;;;;;5013330;28;20046;-81
2022/11/19 15:13:00;;;;;;;118.45;67.43;;;;;;;;;;5013646;28;20050;-83
2022/11/19 15:15:49;;;;;;;70.70;39.60;;;;;;;;;;5013950;28;20038;-81
2022/11/19 15:18:49;;;;;;;57.80;36.65;;;;;;;;;;5015621;28;20488;-82
2022/11/19 15:22:07;;;;;;;53.25;34.03;;;;;;;;;;5017920;28;20054;-81
2022/11/19 15:25:04;;;;;;;55.58;35.33;;;;;;;;;;5013171;28;20057;-82
2022/11/19 15:28:27;;;;;;;151.40;101.82;;;;;;;;;;5013970;28;20050;-80
2022/11/19 15:31:32;;;;;;;56.20;30.77;;;;;;;;;;5012904;28;20046;-77
2022/11/19 15:34:26;;;;;;;56.60;34.65;;;;;;;;;;5020014;28;20054;-81
2022/11/19 15:37:17;;;;;;;63.33;32.47;;;;;;;;;;5013707;28;20057;-80
2022/11/19 15:40:05;;;;;;;56.90;33.30;;;;;;;;;;5004362;28;20383;-80
2022/11/19 15:43:00;;;;;;;78.50;40.47;;;;;;;;;;5013172;28;20050;-79
2022/11/19 15:46:07;;;;;;;67.47;38.20;;;;;;;;;;5012636;28;20046;-79
2022/11/19 15:49:31;;;;;;;56.80;34.67;;;;;;;;;;5019801;28;20050;-78
2022/11/19 15:52:27;;;;;;;62.22;37.83;;;;;;;;;;5013214;28;20046;-78
2022/11/19 15:55:19;;;;;;;54.85;34.78;;;;;;;;;;5012943;28;20050;-78
2022/11/19 15:58:13;;;;;;;53.45;35.33;;;;;;;;;;5012947;28;20061;-78
2022/11/19 16:00:59;;;;;;;102.00;63.67;;;;;;;;;;5018822;28;20046;-81
2022/11/19 16:03:44;;;;;;;69.13;42.60;;;;;;;;;;5014353;28;20042;-81
2022/11/19 16:06:30;;;;;;;86.75;50.33;;;;;;;;;;5005291;28;20042;-82
2022/11/19 16:09:21;;;;;;;58.40;37.55;;;;;;;;;;5012831;28;20057;-85
2022/11/19 16:18:29;;;;;;;47.25;28.50;;;;;;;;;;5016321;28;20046;-82
2022/11/19 16:21:30;;;;;;;57.72;34.22;;;;;;;;;;5015489;28;20050;-83
2022/11/19 16:27:24;;;;;;;47.58;28.50;;;;;;;;;;5016804;28;20046;-81
2022/11/19 16:30:42;;;;;;;52.35;34.20;;;;;;;;;;5015051;28;20042;-83
2022/11/19 16:33:29;;;;;;;59.58;37.33;;;;;;;;;;5022837;28;20399;-83
2022/11/19 16:36:17;;;;;;;48.20;32.78;;;;;;;;;;5015378;28;20046;-83
2022/11/19 16:39:04;;;;;;;47.70;31.45;;;;;;;;;;5015678;28;20057;-81
2022/11/19 16:45:03;;;;;;;51.97;34.85;;;;;;;;;;5018277;28;20046;-80
2022/11/19 16:47:57;;;;;;;50.45;34.08;;;;;;;;;;5015874;28;20042;-81
2022/11/19 16:50:42;;;;;;;215.70;127.47;;;;;;;;;;5017105;28;20054;-81
2022/11/19 16:53:44;;;;;;;183.07;103.70;;;;;;;;;;5016501;28;20054;-80
2022/11/19 16:56:40;;;;;;;121.63;70.40;;;;;;;;;;5015573;28;20042;-80
2022/11/19 16:59:25;;;;;;;106.03;60.58;;;;;;;;;;5015928;28;20046;-79
2022/11/19 17:02:16;;;;;;;79.45;49.78;;;;;;;;;;5019438;28;20046;-80
2022/11/19 17:05:07;;;;;;;49.95;32.33;;;;;;;;;;5017385;28;20403;-80
2022/11/19 17:08:04;;;;;;;35.72;24.83;;;;;;;;;;5016076;28;20038;-82
2022/11/19 17:14:35;;;;;;;40.33;26.80;;;;;;;;;;5015362;28;20502;-79
2022/11/19 17:17:36;;;;;;;35.60;23.38;;;;;;;;;;5015790;28;20038;-79
2022/11/19 17:20:28;;;;;;;31.48;21.02;;;;;;;;;;5014439;28;20054;-81
2022/11/19 17:23:15;;;;;;;27.08;19.20;;;;;;;;;;5016562;28;20049;-81
2022/11/19 17:26:07;;;;;;;31.00;20.67;;;;;;;;;;5018035;28;20038;-79
2022/11/19 17:29:19;;;;;;;33.15;19.75;;;;;;;;;;5015821;28;20475;-81
2022/11/19 17:32:04;;;;;;;31.77;19.63;;;;;;;;;;5013958;28;20045;-80
2022/11/19 17:34:54;;;;;;;33.78;21.70;;;;;;;;;;5014562;28;20050;-81
2022/11/19 17:37:39;;;;;;;28.75;19.75;;;;;;;;;;5015526;28;20034;-78
2022/11/19 17:40:25;;;;;;;30.73;21.83;;;;;;;;;;5014258;28;20403;-80
2022/11/19 17:46:15;;;;;;;30.43;19.77;;;;;;;;;;5015209;28;20392;-83
2022/11/19 17:49:01;;;;;;;41.67;26.45;;;;;;;;;;5014769;28;20391;-82
2022/11/19 17:51:47;;;;;;;30.38;20.13;;;;;;;;;;5015569;28;20050;-80
2022/11/19 17:54:33;;;;;;;33.78;18.85;;;;;;;;;;5015219;28;20391;-81